Time;durP1;ratioP1;P1;durP2;ratioP2;P2;SDS_P1;SDS_P2;PMS_P1;PMS_P2;Temp;Humidity;BMP_temperature;BMP_pressure;BME280_temperature;BME280_humidity;BME280_pressure;Samples;Min_cycle;Max_cycle;Signal;HPM_P1;HPM_P2
2021/06/12 00:01:43;;;;;;;5.30;2.37;;;;;;;14.55;75.11;99176.24;1704592;82;22654;-56
2021/06/12 00:04:09;;;;;;;6.42;1.80;;;;;;;14.54;75.11;99175.89;1706537;82;21646;-54
2021/06/12 00:06:35;;;;;;;5.05;1.60;;;;;;;14.54;75.10;99175.89;1701559;82;21509;-55
2021/06/12 00:09:03;;;;;;;5.15;1.90;;;;;;;14.55;75.09;99176.73;1704309;83;21447;-54
2021/06/12 00:11:31;;;;;;;3.70;2.05;;;;;;;14.56;74.84;99173.05;1712891;82;20970;-54
2021/06/12 00:13:57;;;;;;;4.87;1.62;;;;;;;14.53;74.68;99178.22;1709713;82;21485;-57
2021/06/12 00:16:24;;;;;;;3.10;2.30;;;;;;;14.52;74.79;99172.91;1709357;82;20892;-57
2021/06/12 00:18:50;;;;;;;2.58;2.37;;;;;;;14.51;74.54;99162.56;1710500;82;20891;-55
2021/06/12 00:21:17;;;;;;;6.03;1.70;;;;;;;14.50;74.79;99159.48;1705813;82;20995;-55
2021/06/12 00:23:44;;;;;;;1.95;1.60;;;;;;;14.48;74.75;99158.72;1709793;82;20954;-54
2021/06/12 00:26:11;;;;;;;6.55;1.90;;;;;;;14.45;74.65;99159.45;1706567;82;21052;-57
2021/06/12 00:28:38;;;;;;;4.22;1.90;;;;;;;14.37;74.44;99154.05;1706608;82;21122;-57
2021/06/12 00:31:05;;;;;;;5.58;1.67;;;;;;;14.37;74.44;99154.05;1705781;82;21428;-54
2021/06/12 00:33:31;;;;;;;2.45;1.72;;;;;;;14.35;74.49;99156.03;1709703;82;20943;-55
2021/06/12 00:35:58;;;;;;;1.67;1.57;;;;;;;14.33;74.59;99155.27;1705379;83;21081;-56
2021/06/12 00:38:24;;;;;;;2.05;1.85;;;;;;;14.32;74.62;99152.17;1704129;83;21137;-56
2021/06/12 00:40:50;;;;;;;2.17;2.00;;;;;;;14.33;74.66;99155.75;1705812;82;21703;-56
2021/06/12 00:43:16;;;;;;;2.37;2.00;;;;;;;14.29;74.63;99155.09;1706739;82;21381;-55
2021/06/12 00:45:46;;;;;;;2.37;1.80;;;;;;;14.25;74.61;99152.74;1709286;82;21102;-53
2021/06/12 00:48:11;;;;;;;1.70;1.55;;;;;;;14.23;74.72;99154.69;1705926;82;21045;-55
2021/06/12 00:50:38;;;;;;;2.17;1.17;;;;;;;14.21;74.83;99151.22;1704005;82;21156;-53
2021/06/12 00:53:04;;;;;;;1.62;1.47;;;;;;;14.19;74.74;99156.77;1704624;82;21035;-56
2021/06/12 00:55:30;;;;;;;4.50;1.45;;;;;;;14.17;74.65;99156.49;1704195;82;21125;-53
2021/06/12 00:57:57;;;;;;;3.30;1.98;;;;;;;14.16;74.64;99161.52;1704182;82;21120;-54
2021/06/12 01:00:23;;;;;;;2.72;1.35;;;;;;;14.14;74.56;99158.92;1704144;82;21792;-54
2021/06/12 01:02:50;;;;;;;2.42;2.05;;;;;;;14.12;74.57;99156.80;1705748;82;22442;-55
2021/06/12 01:05:19;;;;;;;1.98;1.77;;;;;;;14.10;74.57;99160.14;1702398;82;21157;-54
2021/06/12 01:07:45;;;;;;;2.72;2.47;;;;;;;14.08;74.56;99161.21;1704931;82;20993;-53
2021/06/12 01:10:15;;;;;;;4.62;2.02;;;;;;;14.05;74.64;99164.13;1704705;82;21604;-53
2021/06/12 01:13:01;;;;;;;2.10;1.85;;;;;;;14.02;74.77;99163.88;1705902;82;20962;-55
2021/06/12 01:15:51;;;;;;;7.12;1.77;;;;;;;14.00;74.90;99163.12;1708980;82;21158;-53
2021/06/12 01:18:19;;;;;;;2.92;1.77;;;;;;;14.00;74.99;99169.39;1706717;82;21090;-53
2021/06/12 01:21:06;;;;;;;2.33;1.90;;;;;;;14.00;75.07;99161.77;1710346;82;21088;-55
2021/06/12 01:24:10;;;;;;;4.00;1.42;;;;;;;14.02;75.02;99167.94;1707669;82;21081;-55
2021/06/12 01:27:15;;;;;;;3.33;1.40;;;;;;;14.04;74.96;99157.84;1704599;82;21924;-55
2021/06/12 01:30:06;;;;;;;3.37;2.20;;;;;;;14.04;74.55;99160.55;1713985;82;21228;-54
2021/06/12 01:32:34;;;;;;;2.77;2.15;;;;;;;14.00;74.38;99165.83;1708666;82;21057;-55
2021/06/12 01:35:14;;;;;;;3.45;2.12;;;;;;;13.95;74.44;99157.19;1713072;82;21181;-55
2021/06/12 01:37:42;;;;;;;7.95;1.98;;;;;;;13.91;74.54;99159.23;1710597;82;21080;-52
2021/06/12 01:41:36;;;;;;;4.13;1.80;;;;;;;13.90;74.71;99152.56;1755506;78;22784;-56
2021/06/12 01:44:02;;;;;;;2.50;1.37;;;;;;;13.83;74.92;99155.33;1713833;80;21337;-56
2021/06/12 01:46:28;;;;;;;4.90;1.20;;;;;;;13.79;75.05;99162.79;1719976;80;21341;-55
2021/06/12 01:48:58;;;;;;;3.70;1.07;;;;;;;13.78;74.99;99162.92;1723522;80;20940;-56
2021/06/12 01:51:23;;;;;;;2.90;1.45;;;;;;;13.76;74.95;99158.09;1719230;80;21438;-55
2021/06/12 01:53:53;;;;;;;2.75;1.20;;;;;;;13.76;75.00;99151.34;1726407;80;22571;-56
2021/06/12 01:56:23;;;;;;;3.90;1.42;;;;;;;13.76;74.98;99159.45;1722037;80;21036;-55
2021/06/12 01:58:50;;;;;;;3.62;2.15;;;;;;;13.74;74.96;99158.69;1711334;82;22368;-56
2021/06/12 02:01:17;;;;;;;5.45;1.47;;;;;;;13.71;74.79;99163.81;1723810;80;21466;-53
2021/06/12 02:03:45;;;;;;;7.50;1.77;;;;;;;13.68;74.76;99165.89;1717713;81;21049;-56
2021/06/12 02:06:13;;;;;;;2.70;1.52;;;;;;;13.67;74.86;99165.02;1720933;80;21112;-54
2021/06/12 02:08:40;;;;;;;4.95;1.60;;;;;;;13.67;74.93;99169.08;1721138;80;21117;-54
2021/06/12 02:11:06;;;;;;;2.72;1.37;;;;;;;13.65;74.97;99169.66;1721243;80;21103;-55
2021/06/12 02:13:33;;;;;;;4.30;1.27;;;;;;;13.66;75.06;99167.83;1720588;80;20899;-54
2021/06/12 02:16:00;;;;;;;7.35;1.15;;;;;;;13.65;75.03;99171.02;1717285;80;21431;-56
2021/06/12 02:18:26;;;;;;;1.40;1.30;;;;;;;13.64;75.02;99167.45;1720629;80;22477;-55
2021/06/12 02:20:53;;;;;;;2.98;1.60;;;;;;;13.66;75.06;99166.48;1723777;80;21538;-54
2021/06/12 02:23:19;;;;;;;4.22;2.20;;;;;;;13.67;75.14;99169.56;1723960;80;21674;-55
2021/06/12 02:25:46;;;;;;;2.37;1.35;;;;;;;13.67;75.22;99174.97;1721258;80;21121;-56
2021/06/12 02:28:14;;;;;;;2.70;1.20;;;;;;;13.65;75.27;99176.42;1718209;80;21125;-55
2021/06/12 02:30:50;;;;;;;2.25;1.20;;;;;;;13.66;75.27;99180.00;1724652;80;20887;-56
2021/06/12 02:33:17;;;;;;;2.45;1.00;;;;;;;13.63;75.31;99180.58;1720784;80;20887;-55
2021/06/12 02:35:43;;;;;;;12.05;1.47;;;;;;;13.62;75.44;99184.73;1723455;80;21102;-54
2021/06/12 02:38:09;;;;;;;4.12;1.25;;;;;;;13.60;75.54;99189.41;1723767;80;20869;-55
2021/06/12 02:40:36;;;;;;;4.10;1.07;;;;;;;13.56;75.76;99183.34;1717787;80;20858;-56
2021/06/12 02:43:03;;;;;;;4.22;1.35;;;;;;;13.52;75.99;99185.89;1706086;81;21106;-54
2021/06/12 02:45:30;;;;;;;1.82;1.67;;;;;;;13.51;76.22;99196.33;1708970;81;20879;-56
2021/06/12 02:48:07;;;;;;;2.55;1.30;;;;;;;13.52;76.33;99189.95;1710419;81;21085;-54
2021/06/12 02:50:35;;;;;;;1.98;1.47;;;;;;;13.51;76.37;99193.63;1707394;81;20868;-53
2021/06/12 02:53:05;;;;;;;6.55;1.10;;;;;;;13.48;76.52;99191.60;1708158;81;21363;-56
2021/06/12 02:55:35;;;;;;;1.40;0.98;;;;;;;13.48;76.88;99194.30;1705844;81;20897;-55
2021/06/12 02:58:01;;;;;;;1.65;1.22;;;;;;;13.50;77.10;99198.64;1708884;81;20975;-54
2021/06/12 03:00:28;;;;;;;2.90;1.30;;;;;;;13.50;77.41;99198.64;1709741;81;21391;-54
2021/06/12 03:02:54;;;;;;;4.85;1.70;;;;;;;13.52;77.68;99194.00;1707141;81;20943;-55
2021/06/12 03:05:23;;;;;;;3.27;1.45;;;;;;;13.56;77.95;99200.91;1708830;81;20931;-53
2021/06/12 03:07:53;;;;;;;1.87;1.77;;;;;;;13.61;78.20;99196.04;1708233;81;20925;-56
2021/06/12 03:10:21;;;;;;;2.85;1.57;;;;;;;13.70;78.48;99193.67;1706554;81;21077;-56
2021/06/12 03:12:47;;;;;;;5.97;2.00;;;;;;;13.77;78.71;99196.35;1701386;81;21117;-56
2021/06/12 03:15:15;;;;;;;1.70;1.40;;;;;;;13.85;78.88;99196.20;1705443;81;21070;-55
2021/06/12 03:17:45;;;;;;;2.72;1.50;;;;;;;13.93;79.02;99195.16;1712587;81;21066;-53
2021/06/12 03:20:14;;;;;;;1.30;1.20;;;;;;;14.02;79.12;99188.23;1708568;81;20963;-54
2021/06/12 03:22:42;;;;;;;1.98;1.57;;;;;;;14.11;79.12;99195.70;1709852;81;20900;-54
2021/06/12 03:25:11;;;;;;;1.22;1.12;;;;;;;14.22;79.20;99203.89;1712444;81;21281;-53
2021/06/12 03:27:37;;;;;;;4.60;1.20;;;;;;;14.34;79.30;99211.63;1727761;81;20950;-54
2021/06/12 03:30:07;;;;;;;1.10;0.95;;;;;;;14.44;79.33;99203.75;1710492;81;21558;-54
2021/06/12 03:32:33;;;;;;;4.45;1.55;;;;;;;14.54;79.36;99207.04;1701613;81;21505;-55
2021/06/12 03:34:59;;;;;;;2.87;2.40;;;;;;;14.64;79.47;99206.71;1707565;81;21077;-56
2021/06/12 03:37:26;;;;;;;3.80;3.58;;;;;;;14.77;79.72;99208.05;1699050;81;21171;-57
2021/06/12 03:39:52;;;;;;;4.20;3.95;;;;;;;14.91;79.95;99212.43;1702608;81;21082;-55
2021/06/12 03:42:18;;;;;;;2.25;2.05;;;;;;;15.05;80.07;99210.44;1691632;82;21406;-55
2021/06/12 03:44:45;;;;;;;3.08;2.77;;;;;;;15.19;80.38;99199.03;1712179;81;21599;-55
2021/06/12 03:47:12;;;;;;;2.25;2.10;;;;;;;15.31;80.58;99199.47;1721516;81;21139;-55
2021/06/12 03:49:38;;;;;;;4.25;3.37;;;;;;;15.42;80.76;99196.78;1711933;81;21185;-54
2021/06/12 03:52:06;;;;;;;4.17;3.87;;;;;;;15.52;80.61;99201.39;1706279;81;21529;-55
2021/06/12 03:54:32;;;;;;;4.90;3.83;;;;;;;15.62;80.38;99193.44;1713962;81;21089;-55
2021/06/12 03:56:59;;;;;;;4.72;4.33;;;;;;;15.69;80.28;99199.25;1720435;81;21457;-55
2021/06/12 03:59:25;;;;;;;3.52;3.33;;;;;;;15.84;80.05;99206.18;1719470;81;21054;-55
2021/06/12 04:01:53;;;;;;;4.45;4.10;;;;;;;15.94;79.87;99208.55;1711767;81;21204;-56
2021/06/12 04:04:21;;;;;;;4.90;4.58;;;;;;;16.04;79.82;99211.41;1713961;81;21082;-57
2021/06/12 04:06:48;;;;;;;4.87;4.45;;;;;;;16.13;79.66;99212.91;1718477;81;21105;-56
2021/06/12 04:09:14;;;;;;;5.40;3.67;;;;;;;16.23;79.46;99211.69;1686732;82;21107;-54
2021/06/12 04:11:40;;;;;;;9.00;4.33;;;;;;;16.34;79.33;99217.09;1714622;81;21157;-56
2021/06/12 04:14:06;;;;;;;5.97;4.80;;;;;;;16.44;79.19;99222.17;1714444;81;21726;-56
2021/06/12 04:16:33;;;;;;;4.17;3.70;;;;;;;16.53;79.00;99217.84;1716560;81;21040;-57
2021/06/12 04:19:01;;;;;;;4.37;4.08;;;;;;;16.62;78.95;99216.64;1715273;81;21055;-56
2021/06/12 04:21:27;;;;;;;5.03;3.92;;;;;;;16.74;78.77;99219.36;1716399;81;21110;-55
2021/06/12 04:23:54;;;;;;;4.25;3.92;;;;;;;16.85;78.53;99221.54;1713943;81;21100;-55
2021/06/12 04:26:20;;;;;;;5.00;4.58;;;;;;;16.95;78.33;99221.16;1716445;81;21272;-57
2021/06/12 04:28:47;;;;;;;6.08;4.65;;;;;;;17.05;78.15;99219.03;1713514;81;21033;-56
2021/06/12 04:31:14;;;;;;;4.78;4.45;;;;;;;17.13;77.92;99226.92;1710873;81;22163;-55
2021/06/12 04:33:40;;;;;;;3.80;3.60;;;;;;;17.20;77.68;99222.69;1715607;81;21082;-56
2021/06/12 04:36:06;;;;;;;3.77;3.58;;;;;;;17.28;77.35;99221.55;1707172;80;21535;-55
2021/06/12 04:38:33;;;;;;;3.52;3.33;;;;;;;17.38;77.22;99224.37;1708210;81;21670;-54
2021/06/12 04:40:59;;;;;;;3.37;3.08;;;;;;;17.47;76.83;99224.09;1710026;81;21053;-55
2021/06/12 04:43:26;;;;;;;5.30;2.52;;;;;;;17.55;76.48;99226.52;1709439;81;21459;-57
2021/06/12 04:45:52;;;;;;;2.50;2.30;;;;;;;17.66;76.32;99222.43;1708381;81;21065;-55
2021/06/12 04:48:19;;;;;;;5.17;3.72;;;;;;;17.76;75.90;99225.23;1712792;81;21055;-57
2021/06/12 04:50:45;;;;;;;2.85;2.75;;;;;;;17.87;75.43;99229.72;1711528;81;21149;-57
2021/06/12 04:53:12;;;;;;;6.35;3.58;;;;;;;17.97;75.07;99227.94;1718248;81;20974;-57
2021/06/12 04:55:39;;;;;;;3.83;3.12;;;;;;;18.07;74.60;99231.59;1712463;81;21143;-57
2021/06/12 04:58:06;;;;;;;2.22;2.05;;;;;;;18.15;73.98;99221.76;1716072;81;21504;-57
2021/06/12 05:00:33;;;;;;;2.65;2.00;;;;;;;18.25;73.69;99219.59;1710390;81;22306;-57
2021/06/12 05:02:59;;;;;;;1.77;1.65;;;;;;;18.34;73.33;99221.50;1655243;84;21151;-55
2021/06/12 05:05:25;;;;;;;1.62;1.52;;;;;;;18.44;73.16;99219.70;1674509;83;21144;-55
2021/06/12 05:07:52;;;;;;;2.62;2.08;;;;;;;18.54;72.80;99214.63;1709422;81;21133;-55
2021/06/12 05:10:20;;;;;;;2.02;1.77;;;;;;;18.64;72.44;99211.97;1656444;84;21045;-53
2021/06/12 05:12:46;;;;;;;2.67;2.10;;;;;;;18.75;72.19;99210.52;1658006;83;21092;-54
2021/06/12 05:15:14;;;;;;;2.20;2.00;;;;;;;18.86;71.99;99210.92;1656380;83;21739;-57
2021/06/12 05:17:40;;;;;;;1.60;1.00;;;;;;;18.98;71.71;99205.69;1657734;83;20940;-54
2021/06/12 05:20:09;;;;;;;0.78;0.78;;;;;;;19.07;69.67;99208.08;1661093;83;21038;-56
2021/06/12 05:22:35;;;;;;;2.65;0.95;;;;;;;19.15;68.57;99211.83;1663062;83;20947;-56
2021/06/12 05:25:01;;;;;;;1.25;1.15;;;;;;;19.22;67.79;99208.05;1658267;83;21101;-56
2021/06/12 05:27:28;;;;;;;1.55;1.45;;;;;;;19.27;67.52;99205.75;1660084;83;21838;-55
2021/06/12 05:29:54;;;;;;;1.60;0.98;;;;;;;19.35;67.28;99212.72;1678352;83;21080;-54
2021/06/12 05:32:20;;;;;;;0.80;0.78;;;;;;;19.41;66.64;99217.60;1675502;83;21082;-57
2021/06/12 05:34:47;;;;;;;0.80;0.72;;;;;;;19.46;66.65;99213.09;1709116;81;21217;-55
2021/06/12 05:37:13;;;;;;;1.65;1.00;;;;;;;19.49;65.66;99210.95;1710338;81;21956;-55
2021/06/12 05:39:39;;;;;;;1.57;1.00;;;;;;;19.54;65.43;99213.27;1712136;81;21540;-55
2021/06/12 05:42:07;;;;;;;1.10;0.80;;;;;;;19.59;65.10;99215.05;1709478;81;22697;-54
2021/06/12 05:44:34;;;;;;;1.05;0.95;;;;;;;19.63;65.51;99210.55;1713319;81;20975;-55
2021/06/12 05:47:00;;;;;;;1.42;1.00;;;;;;;19.69;65.74;99208.23;1715313;81;21492;-54
2021/06/12 05:49:27;;;;;;;1.67;0.90;;;;;;;19.75;65.57;99214.47;1718861;81;21931;-54
2021/06/12 05:51:54;;;;;;;2.00;0.80;;;;;;;19.81;65.42;99205.72;1715333;81;21085;-56
2021/06/12 05:54:20;;;;;;;2.55;1.20;;;;;;;19.87;65.31;99203.77;1709487;81;21128;-56
2021/06/12 05:56:46;;;;;;;0.95;0.85;;;;;;;19.95;65.36;99200.66;1711702;81;21128;-55
2021/06/12 05:59:12;;;;;;;3.58;1.50;;;;;;;20.03;64.91;99206.25;1698672;81;24114;-56
2021/06/12 06:01:39;;;;;;;1.77;1.67;;;;;;;20.13;64.55;99204.87;1669790;83;22451;-55
2021/06/12 06:04:05;;;;;;;1.55;1.45;;;;;;;20.21;64.32;99205.49;1669627;83;22265;-58
2021/06/12 06:06:32;;;;;;;3.67;2.27;;;;;;;20.26;63.80;99205.39;1673465;84;20975;-55
2021/06/12 06:08:58;;;;;;;4.30;1.90;;;;;;;20.32;63.40;99200.72;1672498;83;20899;-56
2021/06/12 06:11:24;;;;;;;2.42;2.33;;;;;;;20.37;63.02;99206.63;1672617;84;21041;-55
2021/06/12 06:13:56;;;;;;;3.35;2.98;;;;;;;20.42;62.51;99202.56;1631968;84;21445;-55
2021/06/12 06:16:23;;;;;;;3.30;2.15;;;;;;;20.45;62.76;99199.54;1672973;84;21005;-56
2021/06/12 06:18:49;;;;;;;3.25;2.62;;;;;;;20.49;62.53;99203.71;1667572;84;22596;-58
2021/06/12 06:21:18;;;;;;;2.25;2.00;;;;;;;20.53;62.28;99202.38;1665348;83;21181;-59
2021/06/12 06:23:44;;;;;;;4.95;2.70;;;;;;;20.55;60.95;99205.84;1667422;83;21105;-60
2021/06/12 06:26:10;;;;;;;2.85;2.62;;;;;;;20.54;60.47;99208.21;1667211;83;21125;-56
2021/06/12 06:28:36;;;;;;;4.50;1.82;;;;;;;20.52;60.22;99208.86;1667201;83;21764;-57
2021/06/12 06:31:03;;;;;;;5.90;3.17;;;;;;;20.55;60.76;99201.73;1664586;84;21536;-55
2021/06/12 06:33:30;;;;;;;5.75;4.15;;;;;;;20.61;61.00;99202.49;1671487;84;21555;-55
2021/06/12 06:35:56;;;;;;;5.05;4.10;;;;;;;20.68;61.20;99203.61;1675141;83;21144;-55
2021/06/12 06:38:23;;;;;;;4.53;4.12;;;;;;;20.76;60.82;99203.70;1677271;84;21149;-57
2021/06/12 06:40:49;;;;;;;4.85;2.75;;;;;;;20.84;61.01;99199.70;1667985;83;21146;-57
2021/06/12 06:43:16;;;;;;;3.40;1.40;;;;;;;20.95;61.05;99198.14;1672904;83;21056;-58
2021/06/12 06:45:43;;;;;;;1.90;1.65;;;;;;;21.02;60.32;99202.48;1668847;83;21715;-57
2021/06/12 06:48:10;;;;;;;3.05;2.10;;;;;;;21.10;60.28;99202.07;1668506;83;21264;-55
2021/06/12 06:50:37;;;;;;;3.45;2.42;;;;;;;21.15;60.13;99198.39;1673833;83;21115;-58
2021/06/12 06:53:03;;;;;;;3.67;2.60;;;;;;;21.22;60.10;99207.38;1668152;83;21166;-55
2021/06/12 06:55:30;;;;;;;3.95;1.80;;;;;;;21.26;59.19;99199.22;1670722;83;21065;-56
2021/06/12 06:57:56;;;;;;;3.33;2.30;;;;;;;21.24;58.93;99201.24;1669607;83;21092;-56
2021/06/12 07:00:25;;;;;;;4.72;2.25;;;;;;;21.25;59.29;99201.60;1667569;83;21467;-54
2021/06/12 07:02:51;;;;;;;2.40;2.20;;;;;;;21.25;59.34;99205.70;1671039;83;21056;-58
2021/06/12 07:05:17;;;;;;;2.58;2.45;;;;;;;21.25;59.11;99202.46;1670394;83;22657;-58
2021/06/12 07:07:43;;;;;;;3.50;1.70;;;;;;;21.28;58.73;99195.29;1671104;83;22180;-56
2021/06/12 07:10:11;;;;;;;1.52;1.10;;;;;;;21.34;59.02;99204.27;1670381;83;21630;-56
2021/06/12 07:12:37;;;;;;;1.60;1.30;;;;;;;21.40;59.09;99205.02;1670606;83;21148;-56
2021/06/12 07:15:05;;;;;;;1.95;1.20;;;;;;;21.43;58.45;99204.70;1670673;83;21049;-55
2021/06/12 07:17:31;;;;;;;1.27;1.17;;;;;;;21.45;58.52;99202.66;1668619;83;21112;-55
2021/06/12 07:20:00;;;;;;;1.45;1.12;;;;;;;21.52;58.55;99205.66;1667501;83;21093;-58
2021/06/12 07:22:27;;;;;;;1.92;1.10;;;;;;;21.55;58.30;99205.31;1667211;83;21065;-57
2021/06/12 07:24:55;;;;;;;12.37;1.57;;;;;;;21.59;58.33;99204.00;1667963;83;21127;-58
2021/06/12 07:27:21;;;;;;;3.35;1.10;;;;;;;21.65;58.00;99196.52;1666890;83;21074;-60
2021/06/12 07:29:47;;;;;;;2.65;1.40;;;;;;;21.73;58.00;99198.47;1667041;83;22228;-56
2021/06/12 07:32:14;;;;;;;2.30;1.42;;;;;;;21.79;57.07;99194.58;1670054;83;21139;-57
2021/06/12 07:34:41;;;;;;;3.47;1.30;;;;;;;21.76;56.17;99199.02;1667565;83;22423;-57
2021/06/12 07:37:07;;;;;;;1.60;1.00;;;;;;;21.68;56.63;99194.84;1670803;83;21060;-58
2021/06/12 07:39:34;;;;;;;2.05;1.00;;;;;;;21.65;57.04;99197.02;1668278;83;21144;-58
2021/06/12 07:42:00;;;;;;;2.98;0.93;;;;;;;21.70;57.09;99199.63;1669404;83;21122;-58
2021/06/12 07:44:26;;;;;;;2.25;1.00;;;;;;;21.74;56.37;99190.60;1670586;83;21101;-58
2021/06/12 07:46:52;;;;;;;1.87;0.80;;;;;;;21.81;56.47;99189.80;1668471;83;21057;-57
2021/06/12 07:49:19;;;;;;;1.47;1.00;;;;;;;21.93;57.07;99197.27;1669808;83;21076;-58
2021/06/12 07:51:45;;;;;;;1.85;0.82;;;;;;;22.01;55.14;99197.37;1672861;83;21047;-60
2021/06/12 07:54:11;;;;;;;3.30;1.40;;;;;;;22.08;55.24;99196.21;1677000;83;21662;-58
2021/06/12 07:56:38;;;;;;;1.52;0.95;;;;;;;22.18;55.82;99190.98;1676364;83;22112;-59
2021/06/12 07:59:04;;;;;;;1.22;0.80;;;;;;;22.28;56.58;99194.13;1675106;83;21505;-59
2021/06/12 08:01:32;;;;;;;1.25;1.07;;;;;;;22.37;56.66;99185.77;1677040;84;21072;-58
2021/06/12 08:03:59;;;;;;;1.40;0.90;;;;;;;22.43;55.97;99193.87;1675542;84;21045;-57
2021/06/12 08:06:26;;;;;;;1.10;0.98;;;;;;;22.45;55.18;99190.47;1672509;83;22317;-58
2021/06/12 08:08:53;;;;;;;3.52;0.88;;;;;;;22.47;54.36;99194.74;1672836;83;21045;-57
2021/06/12 08:11:19;;;;;;;1.92;0.90;;;;;;;22.47;54.35;99185.66;1674133;83;21540;-59
2021/06/12 08:13:45;;;;;;;1.72;0.70;;;;;;;22.49;54.29;99189.09;1669742;83;21677;-59
2021/06/12 08:16:12;;;;;;;0.85;0.75;;;;;;;22.51;53.62;99190.67;1674138;83;21056;-56
2021/06/12 08:18:38;;;;;;;3.98;0.72;;;;;;;22.58;53.41;99194.47;1670961;83;21144;-58
2021/06/12 08:21:04;;;;;;;1.02;0.70;;;;;;;22.63;51.29;99189.84;1674183;84;21064;-59
2021/06/12 08:23:31;;;;;;;19.70;1.92;;;;;;;22.65;51.03;99187.81;1672917;83;21121;-57
2021/06/12 08:25:57;;;;;;;2.60;0.80;;;;;;;22.73;51.96;99184.23;1674871;83;21109;-59
2021/06/12 08:28:23;;;;;;;1.92;0.60;;;;;;;22.82;52.46;99191.52;1669637;83;21049;-59
2021/06/12 08:30:50;;;;;;;0.70;0.70;;;;;;;22.94;53.13;99188.33;1669079;83;21506;-57
2021/06/12 08:33:16;;;;;;;0.88;0.60;;;;;;;23.01;53.16;99186.63;1669991;83;21096;-58
2021/06/12 08:35:42;;;;;;;1.00;0.70;;;;;;;23.06;52.29;99188.86;1678927;83;21019;-56
2021/06/12 08:38:09;;;;;;;1.50;0.65;;;;;;;23.05;52.21;99184.42;1676502;83;20938;-55
2021/06/12 08:40:36;;;;;;;0.70;0.70;;;;;;;23.09;52.11;99181.67;1679827;83;20966;-55
2021/06/12 08:43:05;;;;;;;2.17;0.70;;;;;;;23.15;51.91;99182.88;1643284;85;21485;-56
2021/06/12 08:45:31;;;;;;;0.85;0.70;;;;;;;23.23;51.08;99180.15;1660106;84;20933;-54
2021/06/12 08:47:58;;;;;;;2.45;0.82;;;;;;;23.34;51.82;99182.08;1641092;85;20978;-56
2021/06/12 08:50:25;;;;;;;1.70;1.07;;;;;;;23.44;50.89;99185.19;1659257;84;20948;-55
2021/06/12 08:52:53;;;;;;;0.70;0.70;;;;;;;23.47;49.81;99179.36;1663695;84;21532;-56
2021/06/12 08:55:20;;;;;;;1.42;0.80;;;;;;;23.44;49.43;99173.69;1656883;85;21836;-55
2021/06/12 08:57:47;;;;;;;3.87;0.90;;;;;;;23.41;50.10;99178.13;1664010;84;21536;-56
2021/06/12 09:00:15;;;;;;;1.47;1.10;;;;;;;23.40;50.25;99175.03;1663010;84;21098;-57
2021/06/12 09:03:17;;;;;;;2.02;0.80;;;;;;;23.40;50.67;99177.78;1655520;85;20966;-54
2021/06/12 09:05:56;;;;;;;0.80;0.80;;;;;;;23.40;50.18;99173.15;1665016;84;20948;-55
2021/06/12 09:08:25;;;;;;;0.85;0.85;;;;;;;23.45;49.44;99172.66;1661216;85;21082;-55
2021/06/12 09:11:02;;;;;;;0.80;0.80;;;;;;;23.53;50.95;99167.72;1660070;85;21002;-57
2021/06/12 09:13:57;;;;;;;3.27;1.45;;;;;;;23.62;50.94;99168.94;1659717;85;20892;-56
2021/06/12 09:16:37;;;;;;;2.65;0.80;;;;;;;23.75;50.59;99170.64;1659515;84;21552;-55
2021/06/12 09:19:09;;;;;;;2.25;0.90;;;;;;;23.84;52.03;99165.14;1661990;85;21090;-58
2021/06/12 09:21:44;;;;;;;2.98;0.70;;;;;;;23.94;51.51;99170.81;1661541;85;21088;-58
2021/06/12 09:24:26;;;;;;;0.82;0.75;;;;;;;24.06;51.29;99172.19;1656216;85;21063;-56
2021/06/12 09:26:59;;;;;;;0.70;0.70;;;;;;;24.18;50.86;99161.66;1655430;85;21071;-57
2021/06/12 09:29:41;;;;;;;0.80;0.80;;;;;;;24.32;50.97;99165.64;1660310;85;21190;-57
2021/06/12 09:32:16;;;;;;;0.80;0.70;;;;;;;24.40;49.02;99162.87;1658209;85;21069;-57
2021/06/12 09:34:45;;;;;;;2.05;0.70;;;;;;;24.44;49.30;99168.34;1659403;84;21133;-58
2021/06/12 09:37:17;;;;;;;1.35;0.60;;;;;;;24.45;48.36;99167.31;1659025;85;21580;-57
2021/06/12 09:40:06;;;;;;;1.87;0.60;;;;;;;24.39;47.30;99162.53;1658647;84;21759;-55
2021/06/12 09:42:47;;;;;;;1.62;0.60;;;;;;;24.36;46.89;99160.11;1660176;84;21144;-57
2021/06/12 09:45:25;;;;;;;2.22;0.70;;;;;;;24.33;45.80;99154.44;1669926;83;21089;-56
2021/06/12 09:48:13;;;;;;;1.20;0.70;;;;;;;24.29;46.34;99147.59;1651202;84;21781;-55
2021/06/12 09:50:42;;;;;;;0.75;0.60;;;;;;;24.28;46.72;99149.14;1670042;83;21152;-57
2021/06/12 09:53:17;;;;;;;1.87;0.57;;;;;;;24.27;47.05;99144.15;1671615;83;20903;-56
2021/06/12 09:55:44;;;;;;;2.02;0.60;;;;;;;24.21;47.36;99146.75;1672710;83;20922;-57
2021/06/12 09:58:10;;;;;;;6.37;1.22;;;;;;;24.17;47.25;99148.95;1671033;83;21539;-55
2021/06/12 10:00:47;;;;;;;3.17;0.60;;;;;;;24.15;47.92;99145.53;1668452;83;21092;-57
2021/06/12 10:03:26;;;;;;;3.37;0.70;;;;;;;24.16;48.72;99140.90;1672323;83;21061;-57
2021/06/12 10:06:12;;;;;;;0.60;0.60;;;;;;;24.14;48.29;99139.18;1669940;84;21436;-57
2021/06/12 10:08:41;;;;;;;2.12;0.70;;;;;;;24.13;48.76;99136.08;1667367;83;21060;-58
2021/06/12 10:11:08;;;;;;;1.67;0.62;;;;;;;24.18;49.63;99141.05;1672734;83;21057;-57
2021/06/12 10:13:35;;;;;;;1.27;0.50;;;;;;;24.25;48.77;99140.71;1669990;83;21208;-57
2021/06/12 10:16:04;;;;;;;2.35;0.60;;;;;;;24.36;49.47;99125.22;1672394;83;21160;-57
2021/06/12 10:18:31;;;;;;;0.60;0.60;;;;;;;24.44;48.71;99122.95;1668205;83;21085;-58
2021/06/12 10:20:57;;;;;;;2.45;0.60;;;;;;;24.50;48.27;99127.22;1668417;84;21848;-56
2021/06/12 10:23:24;;;;;;;0.53;0.53;;;;;;;24.50;47.69;99124.98;1669381;83;21062;-58
2021/06/12 10:25:52;;;;;;;0.88;0.60;;;;;;;24.49;47.63;99126.05;1670543;83;21200;-58
2021/06/12 10:28:21;;;;;;;2.87;0.53;;;;;;;24.47;47.77;99119.86;1669549;83;21698;-58
2021/06/12 10:30:48;;;;;;;2.30;0.60;;;;;;;24.39;47.74;99113.88;1672336;83;21540;-56
2021/06/12 10:33:18;;;;;;;0.60;0.60;;;;;;;24.33;47.71;99117.86;1674782;84;21148;-56
2021/06/12 10:35:44;;;;;;;1.40;0.60;;;;;;;24.25;47.58;99112.34;1677580;83;21140;-56
2021/06/12 10:38:16;;;;;;;0.70;0.60;;;;;;;24.16;48.46;99116.98;1673274;83;21136;-57
2021/06/12 10:40:52;;;;;;;1.42;0.70;;;;;;;24.10;48.41;99110.81;1670996;83;21490;-57
2021/06/12 10:43:25;;;;;;;0.60;0.60;;;;;;;24.07;49.26;99109.27;1671261;83;20941;-58
2021/06/12 10:46:11;;;;;;;2.85;0.60;;;;;;;24.04;49.77;99105.52;1670622;83;21091;-56
2021/06/12 10:48:59;;;;;;;0.62;0.60;;;;;;;24.04;49.97;99104.66;1673586;83;21160;-57
2021/06/12 10:51:34;;;;;;;1.87;0.60;;;;;;;24.02;50.39;99099.84;1667130;83;21073;-57
2021/06/12 10:54:26;;;;;;;1.12;0.60;;;;;;;23.95;49.19;99094.19;1673155;83;21307;-57
2021/06/12 10:57:05;;;;;;;1.12;0.80;;;;;;;23.97;49.31;99092.13;1675612;83;21523;-58
2021/06/12 10:59:45;;;;;;;1.92;0.75;;;;;;;24.05;49.46;99082.49;1669336;83;21077;-59
2021/06/12 11:02:28;;;;;;;0.60;0.60;;;;;;;24.13;49.99;99082.47;1671114;83;21692;-58
2021/06/12 11:05:05;;;;;;;0.70;0.70;;;;;;;24.30;49.32;99092.93;1673081;83;21090;-55
2021/06/12 11:07:39;;;;;;;2.85;0.78;;;;;;;24.37;48.64;99086.20;1672365;83;22166;-57
2021/06/12 11:10:18;;;;;;;0.70;0.70;;;;;;;24.37;48.17;99080.70;1673085;83;21692;-55
2021/06/12 11:12:56;;;;;;;1.10;0.78;;;;;;;24.36;48.92;99078.46;1671284;83;21089;-57
2021/06/12 11:15:30;;;;;;;0.68;0.62;;;;;;;24.36;48.73;99078.98;1676824;83;20926;-56
2021/06/12 11:18:22;;;;;;;0.85;0.70;;;;;;;24.39;49.08;99078.63;1677330;83;21085;-57
2021/06/12 11:21:06;;;;;;;0.98;0.70;;;;;;;24.36;48.29;99070.72;1671720;83;21344;-56
2021/06/12 11:23:54;;;;;;;1.25;0.70;;;;;;;24.32;48.68;99073.51;1673143;83;21013;-58
2021/06/12 11:26:22;;;;;;;0.70;0.70;;;;;;;24.24;48.26;99073.54;1673339;83;21142;-56
2021/06/12 11:29:10;;;;;;;1.40;0.70;;;;;;;24.17;48.55;99081.58;1672336;83;21148;-57
2021/06/12 11:31:37;;;;;;;0.70;0.70;;;;;;;24.10;48.45;99075.94;1676960;83;21154;-57
2021/06/12 11:34:24;;;;;;;0.68;0.68;;;;;;;24.04;48.60;99071.67;1671657;83;21048;-57
2021/06/12 11:37:20;;;;;;;1.02;0.80;;;;;;;24.01;48.54;99072.00;1673853;83;21532;-58
2021/06/12 11:39:55;;;;;;;1.25;0.70;;;;;;;24.01;48.75;99071.49;1673005;83;21068;-58
2021/06/12 11:42:41;;;;;;;27.30;15.68;;;;;;;24.08;48.46;99067.00;1674626;83;20998;-57
2021/06/12 11:45:23;;;;;;;2.60;2.02;;;;;;;24.18;48.71;99059.06;1682395;83;22693;-56
2021/06/12 11:47:50;;;;;;;3.52;0.88;;;;;;;24.28;47.85;99056.49;1683832;83;20925;-58